Time;durP1;ratioP1;P1;durP2;ratioP2;P2;SDS_P1;SDS_P2;PMS_P1;PMS_P2;Temp;Humidity;BMP_temperature;BMP_pressure;BME280_temperature;BME280_humidity;BME280_pressure;Samples;Min_cycle;Max_cycle;Signal;HPM_P1;HPM_P2
2022/05/03 00:01:56;;;;;;;;;37.40;34.20;;;;;14.97;46.26;101136.47;5030010;28;45332;-52
2022/05/03 00:04:22;;;;;;;;;39.80;35.60;;;;;15.04;46.83;101143.59;5016352;28;45248;-56
2022/05/03 00:07:04;;;;;;;;;37.25;31.00;;;;;15.03;46.25;101141.06;5016615;28;45686;-50
2022/05/03 00:10:00;;;;;;;;;40.20;35.40;;;;;14.69;46.74;101096.38;5015701;28;45988;-49
2022/05/03 00:12:32;;;;;;;;;42.00;33.60;;;;;14.86;46.92;101122.34;5014747;28;45460;-57
2022/05/03 00:14:58;;;;;;;;;35.80;34.20;;;;;14.96;46.64;101130.09;5031354;28;45410;-49
2022/05/03 00:17:24;;;;;;;;;36.25;32.50;;;;;14.87;46.86;101125.94;5014220;28;45364;-49
2022/05/03 00:19:49;;;;;;;;;37.00;32.00;;;;;14.67;46.51;101101.31;5014341;28;47605;-47
2022/05/03 00:22:15;;;;;;;;;48.00;36.00;;;;;14.76;46.59;101125.66;5014329;28;45416;-55
2022/05/03 00:24:41;;;;;;;;;33.00;29.50;;;;;14.58;47.36;101128.38;5031440;28;45394;-54
2022/05/03 00:27:07;;;;;;;;;33.00;32.80;;;;;14.55;47.22;101113.13;5018378;28;45453;-54
2022/05/03 00:29:33;;;;;;;;;42.00;35.25;;;;;14.15;47.52;101042.59;5033999;28;45421;-51
2022/05/03 00:31:59;;;;;;;;;40.20;34.60;;;;;14.66;47.17;101122.56;5034508;28;45422;-47
2022/05/03 00:34:25;;;;;;;;;41.40;34.80;;;;;14.55;47.73;101120.53;5035962;28;45490;-52
2022/05/03 00:36:50;;;;;;;;;44.25;35.75;;;;;14.36;47.82;101098.47;5034885;28;45554;-52
2022/05/03 00:39:16;;;;;;;;;41.50;34.25;;;;;13.80;47.61;101002.63;5034713;28;45789;-53
2022/05/03 00:41:45;;;;;;;;;38.50;34.50;;;;;14.37;47.77;101089.09;5035601;28;45460;-51
2022/05/03 00:47:50;;;;;;;;;36.40;32.80;;;;;14.48;47.66;101118.69;5034963;28;45373;-52
2022/05/03 00:50:45;;;;;;;;;44.60;35.00;;;;;14.42;47.57;101114.13;5035627;28;45457;-49
2022/05/03 00:53:20;;;;;;;;;44.20;35.00;;;;;14.18;47.98;101082.69;5019107;28;45397;-53
2022/05/03 00:56:08;;;;;;;;;41.00;35.40;;;;;14.40;47.55;101102.44;5034511;28;45836;-50
2022/05/03 00:58:43;;;;;;;;;40.20;33.80;;;;;14.42;47.57;101110.50;5034587;28;45367;-49
2022/05/03 01:01:18;;;;;;;;;47.40;34.40;;;;;14.17;47.90;101075.50;5035690;28;45915;-48
2022/05/03 01:03:56;;;;;;;;;43.20;37.00;;;;;14.36;47.90;101112.28;5018339;28;45483;-49
2022/05/03 01:06:33;;;;;;;;;43.40;37.00;;;;;14.30;47.74;101094.69;5034696;28;45416;-50
2022/05/03 01:09:09;;;;;;;;;41.20;34.40;;;;;13.71;47.53;100997.63;5034420;28;45536;-48
2022/05/03 01:11:34;;;;;;;;;43.20;32.80;;;;;14.45;47.81;101113.66;5035678;28;45796;-55
2022/05/03 01:14:10;;;;;;;;;35.75;33.50;;;;;14.23;47.66;101080.97;5035266;28;45456;-55
2022/05/03 01:16:45;;;;;;;;;44.00;32.40;;;;;14.43;47.14;101115.81;5018337;28;45415;-51
2022/05/03 01:19:33;;;;;;;;;37.00;33.20;;;;;14.39;47.66;101108.19;5025885;28;45436;-54
2022/05/03 01:22:07;;;;;;;;;36.00;32.20;;;;;14.43;47.45;101110.28;5029806;28;45601;-51
2022/05/03 01:24:53;;;;;;;;;38.20;33.40;;;;;14.46;47.57;101112.56;5035703;28;45802;-54
2022/05/03 01:27:35;;;;;;;;;45.60;37.60;;;;;14.18;47.68;101068.91;5024037;28;45396;-53
2022/05/03 01:30:01;;;;;;;;;39.60;33.20;;;;;14.38;47.46;101110.13;5068790;28;45301;-51
2022/05/03 01:32:26;;;;;;;;;34.50;32.50;;;;;14.28;47.96;101107.88;5054527;28;46556;-50
2022/05/03 01:34:52;;;;;;;;;29.75;25.50;;;;;14.28;47.53;101101.50;5039072;28;45305;-50
2022/05/03 01:37:23;;;;;;;;;40.75;33.25;;;;;14.25;47.47;101096.44;5038795;28;45248;-53
2022/05/03 01:39:57;;;;;;;;;34.80;33.00;;;;;14.20;47.70;101097.97;5071029;28;45302;-52
2022/05/03 01:42:56;;;;;;;;;33.00;29.40;;;;;14.20;47.88;101095.19;5038781;28;45926;-56
2022/05/03 01:45:53;;;;;;;;;37.80;33.40;;;;;14.05;47.89;101089.22;5071267;28;45474;-51
2022/05/03 01:51:31;;;;;;;;;37.80;32.00;;;;;14.20;47.99;101100.72;5066469;28;45331;-54
2022/05/03 01:54:17;;;;;;;;;37.80;34.20;;;;;14.14;47.95;101084.25;5038426;28;45381;-54
2022/05/03 01:57:02;;;;;;;;;39.20;33.00;;;;;14.19;47.49;101088.00;5068876;28;45533;-55
2022/05/03 01:59:30;;;;;;;;;40.20;33.20;;;;;14.21;48.02;101090.53;5038339;28;45361;-50
2022/05/03 02:02:24;;;;;;;;;37.80;34.40;;;;;14.18;48.05;101088.22;5038647;28;45381;-49
2022/05/03 02:04:59;;;;;;;;;35.40;29.20;;;;;13.97;47.99;101054.47;5018969;28;47655;-50
2022/05/03 02:07:52;;;;;;;;;36.80;30.40;;;;;14.15;48.20;101085.94;5037666;28;45310;-51
2022/05/03 02:10:36;;;;;;;;;40.20;34.40;;;;;13.94;47.76;101043.88;5070478;28;45231;-54
2022/05/03 02:13:20;;;;;;;;;41.20;33.80;;;;;14.16;48.18;101093.13;5037303;28;45366;-52
2022/05/03 02:15:47;;;;;;;;;35.40;30.80;;;;;14.12;47.93;101076.19;5066548;28;46162;-53
2022/05/03 02:18:26;;;;;;;;;40.00;34.20;;;;;14.09;47.78;101082.16;5037667;28;45315;-53
2022/05/03 02:21:23;;;;;;;;;33.00;30.20;;;;;14.05;47.87;101092.78;5053311;28;45282;-58
2022/05/03 02:24:03;;;;;;;;;34.20;32.00;;;;;14.03;48.23;101085.84;5037859;28;45623;-51
2022/05/03 02:26:31;;;;;;;;;38.40;32.80;;;;;13.99;48.08;101095.63;5057476;27;45408;-56
2022/05/03 02:29:06;;;;;;;;;32.00;31.80;;;;;13.92;48.09;101095.69;5041540;28;45381;-55
2022/05/03 02:31:51;;;;;;;;;35.20;31.80;;;;;13.80;48.32;101084.53;5036576;28;45995;-52
2022/05/03 02:34:34;;;;;;;;;35.80;30.60;;;;;13.77;48.28;101082.25;5035588;28;45318;-52
2022/05/03 02:37:03;;;;;;;;;38.40;33.00;;;;;13.85;48.30;101097.66;5063148;28;45417;-56
2022/05/03 02:39:30;;;;;;;;;39.60;33.40;;;;;13.80;48.27;101101.09;5034912;28;45536;-53
2022/05/03 02:42:01;;;;;;;;;32.60;29.40;;;;;13.80;48.60;101095.56;5036749;28;45397;-54
2022/05/03 02:44:28;;;;;;;;;36.40;33.00;;;;;13.81;48.02;101097.25;5053006;28;45468;-53
2022/05/03 02:47:02;;;;;;;;;32.20;30.80;;;;;13.75;48.32;101101.78;5069491;28;47513;-55
2022/05/03 02:49:39;;;;;;;;;36.60;32.60;;;;;13.76;48.14;101105.38;5037215;28;45256;-52
2022/05/03 02:52:07;;;;;;;;;35.60;32.60;;;;;13.72;48.44;101095.84;5037411;28;45341;-53
2022/05/03 02:54:40;;;;;;;;;34.80;28.20;;;;;13.68;48.99;101104.56;5037227;28;45577;-50
2022/05/03 02:57:28;;;;;;;;;37.00;31.80;;;;;13.67;49.21;101096.53;5069388;27;45895;-54
2022/05/03 03:02:43;;;;;;;;;30.80;24.20;;;;;13.67;48.78;101091.03;5037496;28;45687;-54
2022/05/03 03:05:09;;;;;;;;;37.20;33.40;;;;;13.70;48.44;101093.31;5036803;28;45330;-51
2022/05/03 03:07:57;;;;;;;;;37.00;34.60;;;;;13.67;48.85;101097.38;5035570;28;45505;-51
2022/05/03 03:10:31;;;;;;;;;40.00;31.40;;;;;13.59;48.54;101088.50;5052233;28;45353;-53
2022/05/03 03:13:10;;;;;;;;;39.60;32.60;;;;;13.37;48.53;101042.00;5069272;28;45309;-53
2022/05/03 03:15:38;;;;;;;;;45.80;35.80;;;;;13.35;48.41;101061.50;5052534;28;45366;-55
2022/05/03 03:18:04;;;;;;;;;37.20;30.00;;;;;13.55;48.86;101100.00;5069285;28;45448;-49
2022/05/03 03:20:29;;;;;;;;;37.75;32.25;;;;;13.49;48.83;101086.25;5037480;28;45432;-51
2022/05/03 03:22:55;;;;;;;;;36.00;31.75;;;;;13.43;48.48;101096.25;5052647;28;45416;-48
2022/05/03 03:25:22;;;;;;;;;38.25;32.50;;;;;13.51;48.65;101092.41;5037535;28;45287;-50
2022/05/03 03:27:51;;;;;;;;;38.00;34.20;;;;;13.48;48.50;101071.63;5036822;28;45517;-49
2022/05/03 03:30:17;;;;;;;;;32.60;31.60;;;;;13.53;48.89;101090.25;5036918;28;45306;-49
2022/05/03 03:32:53;;;;;;;;;40.75;31.25;;;;;13.49;48.78;101089.88;5035843;28;45294;-51
2022/05/03 03:35:19;;;;;;;;;42.60;33.80;;;;;13.49;48.50;101092.63;5037266;28;45503;-53
2022/05/03 03:37:49;;;;;;;;;40.00;32.80;;;;;13.46;48.44;101089.47;5036811;28;46696;-51
2022/05/03 03:40:15;;;;;;;;;39.20;35.40;;;;;13.47;48.80;101082.88;5036745;28;45374;-50
2022/05/03 03:42:44;;;;;;;;;42.20;33.60;;;;;13.38;48.71;101071.25;5037232;28;45365;-51
2022/05/03 03:45:11;;;;;;;;;40.20;31.80;;;;;13.51;48.68;101084.97;5036852;28;45500;-51
2022/05/03 03:47:37;;;;;;;;;43.80;33.20;;;;;13.48;48.61;101073.53;5035658;28;45512;-50
2022/05/03 03:50:04;;;;;;;;;38.00;33.40;;;;;13.51;48.57;101084.13;5034972;28;45513;-53
2022/05/03 03:52:30;;;;;;;;;38.40;35.20;;;;;13.39;49.06;101059.16;5036733;28;45411;-55
2022/05/03 03:54:55;;;;;;;;;39.50;33.75;;;;;13.22;48.94;101036.78;5035468;28;45487;-51
2022/05/03 03:57:21;;;;;;;;;40.25;31.50;;;;;13.41;48.76;101079.91;5036858;28;45684;-53
2022/05/03 03:59:47;;;;;;;;;45.00;34.50;;;;;13.44;48.75;101075.88;5036458;28;45294;-52
2022/05/03 04:02:14;;;;;;;;;40.20;31.40;;;;;13.47;48.97;101080.13;5018675;28;45459;-50
2022/05/03 04:04:39;;;;;;;;;39.80;33.20;;;;;13.45;48.75;101083.06;5035685;28;45642;-54
2022/05/03 04:07:05;;;;;;;;;36.25;32.75;;;;;13.36;49.08;101079.75;5036113;28;46626;-54
2022/05/03 04:09:30;;;;;;;;;38.50;33.00;;;;;13.36;48.88;101087.16;5035301;28;45456;-55
2022/05/03 04:11:56;;;;;;;;;40.25;33.50;;;;;13.40;48.93;101083.75;5018960;28;45276;-49
2022/05/03 04:14:21;;;;;;;;;42.75;35.25;;;;;13.38;48.90;101080.38;5036888;28;45806;-48
2022/05/03 04:16:47;;;;;;;;;33.25;32.25;;;;;13.48;48.49;101084.56;5036659;28;46222;-54
2022/05/03 04:19:13;;;;;;;;;37.00;33.25;;;;;13.45;48.87;101087.75;5036011;28;45304;-58
2022/05/03 04:21:39;;;;;;;;;36.00;30.75;;;;;13.17;49.07;101048.47;5036645;28;45370;-57
2022/05/03 04:24:05;;;;;;;;;48.40;35.20;;;;;13.39;48.91;101090.31;5036206;28;45336;-54
2022/05/03 04:26:31;;;;;;;;;41.00;35.00;;;;;13.33;48.91;101091.22;5034955;28;45797;-50
2022/05/03 04:28:57;;;;;;;;;44.75;35.75;;;;;13.26;49.21;101090.41;5036110;28;45323;-51
2022/05/03 04:31:26;;;;;;;;;41.60;35.60;;;;;13.22;49.16;101094.66;5068326;28;45417;-52
2022/05/03 04:33:52;;;;;;;;;40.80;35.40;;;;;13.14;49.33;101085.59;5036355;28;45520;-48
2022/05/03 04:36:18;;;;;;;;;39.00;33.80;;;;;13.05;49.46;101061.28;5051090;28;47865;-47
2022/05/03 04:38:43;;;;;;;;;42.25;35.00;;;;;13.21;49.33;101088.31;5034685;28;45965;-52
2022/05/03 04:41:09;;;;;;;;;40.00;35.00;;;;;13.11;49.50;101094.31;5068364;28;45436;-54
2022/05/03 04:43:34;;;;;;;;;44.75;35.50;;;;;13.06;49.76;101083.09;5036051;28;45357;-50
2022/05/03 04:46:00;;;;;;;;;39.25;32.00;;;;;13.15;49.37;101090.03;5035094;28;47324;-51
2022/05/03 04:48:26;;;;;;;;;41.25;35.75;;;;;13.06;49.79;101088.63;5035728;28;45295;-50
2022/05/03 04:50:51;;;;;;;;;36.50;33.75;;;;;13.01;50.08;101089.28;5068402;28;45350;-51
2022/05/03 04:53:17;;;;;;;;;41.75;32.00;;;;;13.03;49.87;101091.81;5035974;28;45133;-53
2022/05/03 04:55:42;;;;;;;;;41.25;33.25;;;;;13.02;49.78;101090.09;5035451;28;46498;-53
2022/05/03 04:58:08;;;;;;;;;35.75;32.25;;;;;12.96;49.89;101085.50;5036004;28;45320;-49
2022/05/03 05:00:33;;;;;;;;;45.50;38.00;;;;;12.82;49.97;101059.91;5067727;28;45452;-55
2022/05/03 05:02:59;;;;;;;;;39.75;34.50;;;;;13.07;50.01;101097.75;5036298;28;45570;-56
2022/05/03 05:05:24;;;;;;;;;37.50;35.50;;;;;12.87;49.65;101065.63;5066850;28;45601;-56
2022/05/03 05:07:50;;;;;;;;;38.00;32.25;;;;;13.12;49.87;101103.41;5035668;28;45425;-53
2022/05/03 05:10:24;;;;;;;;;33.00;31.00;;;;;13.10;49.70;101108.31;5035673;28;45394;-52
2022/05/03 05:12:54;;;;;;;;;34.80;33.00;;;;;13.17;49.77;101102.78;5036100;28;45532;-51
2022/05/03 05:15:19;;;;;;;;;37.40;33.00;;;;;13.04;49.75;101076.13;5035357;28;46527;-53
2022/05/03 05:17:45;;;;;;;;;44.75;34.00;;;;;13.19;49.60;101108.91;5035626;28;45313;-53
2022/05/03 05:20:10;;;;;;;;;38.25;33.75;;;;;13.19;49.64;101115.28;5035399;28;45301;-49
2022/05/03 05:22:36;;;;;;;;;45.00;35.75;;;;;13.14;49.82;101115.09;5035699;28;45390;-50
2022/05/03 05:25:02;;;;;;;;;34.50;31.50;;;;;13.16;50.08;101118.47;5035188;28;47131;-55
2022/05/03 05:27:27;;;;;;;;;38.50;34.00;;;;;13.22;49.93;101117.56;5067578;28;45397;-56
2022/05/03 05:29:53;;;;;;;;;43.25;35.75;;;;;13.22;49.89;101111.19;5033832;28;45521;-51
2022/05/03 05:32:18;;;;;;;;;42.25;35.25;;;;;13.20;49.80;101114.19;5034262;28;45423;-48
2022/05/03 05:34:44;;;;;;;;;42.50;33.75;;;;;13.16;49.81;101121.22;5034784;28;45671;-50
2022/05/03 05:37:09;;;;;;;;;37.75;35.50;;;;;13.15;50.12;101125.88;5035161;28;45422;-54
2022/05/03 05:39:35;;;;;;;;;43.00;32.50;;;;;12.98;50.27;101102.66;5035008;28;45360;-51
2022/05/03 05:42:01;;;;;;;;;51.00;38.25;;;;;13.10;50.24;101125.69;5035587;28;45976;-51
2022/05/03 05:44:29;;;;;;;;;42.40;34.60;;;;;13.09;50.22;101120.41;5034720;28;46368;-52
2022/05/03 05:46:55;;;;;;;;;49.20;36.80;;;;;13.17;50.32;101125.66;5034789;28;45389;-54
2022/05/03 05:49:21;;;;;;;;;49.50;40.25;;;;;13.22;49.82;101128.59;5033937;28;45315;-51
2022/05/03 05:51:46;;;;;;;;;43.50;35.75;;;;;13.24;49.97;101131.97;5033747;28;45256;-52
2022/05/03 05:54:12;;;;;;;;;39.00;36.00;;;;;13.22;49.95;101127.75;5034536;28;45233;-52
2022/05/03 05:56:40;;;;;;;;;43.00;36.75;;;;;13.22;50.11;101119.47;5034378;28;45516;-51
2022/05/03 05:59:05;;;;;;;;;51.40;39.40;;;;;13.18;50.35;101127.34;5034602;28;45401;-53
2022/05/03 06:01:40;;;;;;;;;43.25;35.50;;;;;12.94;50.13;101084.88;5034431;28;45414;-54
2022/05/03 06:04:06;;;;;;;;;43.60;37.00;;;;;12.85;49.61;101049.31;5034606;28;45511;-54
2022/05/03 06:06:36;;;;;;;;;46.00;35.75;;;;;13.41;49.86;101135.06;5032865;28;45506;-52
2022/05/03 06:09:02;;;;;;;;;45.80;36.60;;;;;13.40;49.74;101141.63;5034086;28;45381;-51
2022/05/03 06:11:29;;;;;;;;;44.60;36.40;;;;;13.40;49.77;101149.09;5016477;28;45335;-55
2022/05/03 06:13:54;;;;;;;;;35.20;32.40;;;;;13.40;49.70;101141.63;5032822;28;46824;-55
2022/05/03 06:16:20;;;;;;;;;38.50;33.00;;;;;13.37;49.38;101125.56;5036379;28;45358;-50
2022/05/03 06:18:45;;;;;;;;;39.00;34.25;;;;;13.59;49.82;101146.44;5036316;28;45450;-52
2022/05/03 06:21:12;;;;;;;;;48.00;38.00;;;;;13.65;49.54;101149.16;5037703;28;45319;-54
2022/05/03 06:23:37;;;;;;;;;48.80;37.80;;;;;13.67;49.27;101138.75;5036466;28;45690;-51
2022/05/03 06:26:05;;;;;;;;;37.50;33.50;;;;;13.68;49.65;101137.66;5031159;28;45251;-52
2022/05/03 06:28:34;;;;;;;;;28.40;27.60;;;;;13.44;49.37;101099.84;5029422;28;45442;-53
2022/05/03 06:30:59;;;;;;;;;40.40;35.40;;;;;13.78;49.09;101147.38;5012181;28;45477;-51
2022/05/03 06:33:25;;;;;;;;;37.50;32.00;;;;;13.75;48.86;101145.03;5035971;28;46015;-53
2022/05/03 06:35:50;;;;;;;;;39.00;33.25;;;;;13.76;49.30;101149.53;5034188;28;45490;-50
2022/05/03 06:38:16;;;;;;;;;42.00;31.00;;;;;13.77;48.91;101152.03;5037756;28;45300;-53
2022/05/03 06:40:41;;;;;;;;;42.75;35.00;;;;;13.83;49.13;101159.41;5036513;28;45512;-55
2022/05/03 06:43:08;;;;;;;;;46.25;33.75;;;;;13.86;48.93;101154.53;5037294;28;46591;-53
2022/05/03 06:45:33;;;;;;;;;36.20;32.00;;;;;13.82;49.09;101143.09;5037195;28;45375;-53
2022/05/03 06:48:00;;;;;;;;;39.00;34.50;;;;;13.84;49.27;101163.03;5037463;28;45390;-51
2022/05/03 06:50:26;;;;;;;;;39.00;34.00;;;;;13.74;49.36;101155.25;5037623;28;45303;-51
2022/05/03 06:52:52;;;;;;;;;45.00;36.20;;;;;13.72;49.21;101159.31;5037323;28;46446;-54
2022/05/03 06:55:17;;;;;;;;;41.50;36.75;;;;;13.66;49.50;101158.28;5037253;28;45530;-51
2022/05/03 06:57:43;;;;;;;;;47.00;39.00;;;;;13.30;49.13;101091.66;5036119;28;45389;-52
2022/05/03 07:00:09;;;;;;;;;39.25;32.00;;;;;13.67;49.14;101158.03;5035910;28;45376;-54
2022/05/03 07:02:35;;;;;;;;;40.60;36.00;;;;;13.69;49.60;101161.44;5036081;28;46703;-53
2022/05/03 07:05:02;;;;;;;;;38.60;36.00;;;;;13.79;48.98;101157.34;5037098;28;45369;-55
2022/05/03 07:07:28;;;;;;;;;42.80;36.20;;;;;13.73;49.02;101163.75;5037063;28;45446;-50
2022/05/03 07:09:53;;;;;;;;;43.00;36.75;;;;;13.67;49.64;101160.81;5037009;28;45576;-52
2022/05/03 07:12:19;;;;;;;;;44.75;35.75;;;;;13.72;49.26;101153.78;5036729;28;46050;-50
2022/05/03 07:14:44;;;;;;;;;40.00;33.50;;;;;13.77;49.67;101162.25;5036766;28;45215;-50
2022/05/03 07:22:45;;;;;;;;;46.50;36.50;;;;;13.87;48.83;101162.56;5036655;28;45325;-55
2022/05/03 07:22:49;;;;;;;;;37.60;34.20;;;;;13.86;49.22;101160.88;5036475;28;45390;-54
2022/05/03 07:25:17;;;;;;;;;42.60;37.00;;;;;13.94;48.86;101168.06;5035139;28;45346;-48
2022/05/03 07:27:46;;;;;;;;;45.40;36.80;;;;;14.00;48.99;101174.59;5036212;28;45522;-50
2022/05/03 07:30:15;;;;;;;;;41.60;36.20;;;;;13.83;49.31;101167.69;5014157;28;45579;-55
2022/05/03 07:32:44;;;;;;;;;42.20;36.80;;;;;13.92;48.79;101168.28;5051017;28;47830;-51
2022/05/03 07:35:09;;;;;;;;;38.00;32.80;;;;;13.90;49.02;101153.00;5003051;28;47262;-50
2022/05/03 07:37:35;;;;;;;;;41.50;32.75;;;;;14.05;49.22;101158.19;5037564;28;45514;-51
2022/05/03 07:40:02;;;;;;;;;36.20;34.60;;;;;14.12;48.73;101166.41;5052565;28;45771;-51
2022/05/03 07:42:27;;;;;;;;;46.80;38.60;;;;;13.92;48.47;101137.91;5032443;27;46672;-49
2022/05/03 07:44:53;;;;;;;;;46.75;35.50;;;;;14.17;48.59;101178.47;5024228;28;45938;-49
2022/05/03 07:47:18;;;;;;;;;37.00;33.00;;;;;13.98;48.60;101140.84;5011823;28;45717;-47
2022/05/03 07:49:44;;;;;;;;;37.25;33.00;;;;;14.18;48.05;101180.16;5030149;28;45676;-52
2022/05/03 07:52:09;;;;;;;;;38.75;33.00;;;;;14.14;48.78;101170.63;5030938;28;46529;-52
2022/05/03 07:54:35;;;;;;;;;42.00;35.25;;;;;14.02;47.90;101148.44;5031107;28;45409;-54
2022/05/03 07:57:00;;;;;;;;;43.50;34.25;;;;;14.21;48.61;101168.66;5029085;28;45446;-47
2022/05/03 07:59:25;;;;;;;;;38.75;35.25;;;;;14.09;48.04;101151.16;5031502;28;45551;-49
2022/05/03 08:01:52;;;;;;;;;42.25;33.75;;;;;14.35;48.61;101185.09;5030986;28;46158;-52
2022/05/03 08:04:19;;;;;;;;;47.80;35.60;;;;;14.39;48.18;101180.84;5028694;28;45916;-55
2022/05/03 08:06:45;;;;;;;;;32.75;31.50;;;;;14.42;47.81;101180.38;5030982;28;45464;-53
2022/05/03 08:09:10;;;;;;;;;38.75;33.00;;;;;14.42;47.61;101183.16;5062488;28;45504;-54
2022/05/03 08:11:36;;;;;;;;;45.75;36.50;;;;;14.52;47.86;101184.53;5063231;28;47431;-51
2022/05/03 08:14:39;;;;;;;;;38.50;33.50;;;;;14.55;47.93;101184.06;5063582;28;45452;-52
2022/05/03 08:17:05;;;;;;;;;40.40;35.40;;;;;14.49;47.93;101183.94;5014627;28;45528;-51
2022/05/03 08:19:31;;;;;;;;;42.25;33.00;;;;;14.53;47.92;101181.56;5031129;28;45782;-50
2022/05/03 08:21:56;;;;;;;;;44.50;35.25;;;;;14.63;47.55;101181.84;5029725;28;46629;-60
2022/05/03 08:24:25;;;;;;;;;40.75;34.00;;;;;14.58;47.55;101175.34;5030087;28;45431;-60
2022/05/03 08:26:50;;;;;;;;;43.20;36.00;;;;;14.35;48.23;101155.59;5063576;28;45773;-53
2022/05/03 08:29:16;;;;;;;;;34.25;32.25;;;;;14.41;47.61;101158.53;4990271;28;46032;-58
2022/05/03 08:31:42;;;;;;;;;40.25;30.25;;;;;14.59;48.08;101191.69;5010630;28;45735;-59
2022/05/03 08:34:08;;;;;;;;;36.25;33.00;;;;;14.63;47.40;101183.78;5016574;28;45584;-58
2022/05/03 08:36:33;;;;;;;;;40.40;32.40;;;;;14.57;47.51;101171.72;5020497;27;46014;-56
2022/05/03 08:42:02;;;;;;;;;39.00;36.20;;;;;14.66;47.79;101191.63;5026974;28;46259;-52
2022/05/03 08:44:30;;;;;;;;;42.60;34.80;;;;;14.79;47.41;101184.28;5029948;28;45461;-54
2022/05/03 08:46:56;;;;;;;;;35.60;33.60;;;;;14.87;47.36;101175.69;5029085;28;45826;-54
2022/05/03 08:49:48;;;;;;;;;34.80;32.80;;;;;15.08;47.57;101192.88;5063120;28;45428;-49
2022/05/03 08:52:16;;;;;;;;;35.00;30.00;;;;;14.97;46.58;101164.94;5043851;27;46988;-56
2022/05/03 08:54:41;;;;;;;;;36.40;31.20;;;;;15.22;47.23;101183.38;5063024;28;45710;-56
2022/05/03 08:57:07;;;;;;;;;45.75;36.00;;;;;15.30;46.47;101182.19;5030942;28;45631;-50
2022/05/03 08:59:34;;;;;;;;;34.75;29.25;;;;;15.40;46.16;101182.47;5029484;28;45476;-52
2022/05/03 09:01:59;;;;;;;;;39.80;34.80;;;;;15.32;46.02;101155.97;5030165;28;46037;-53
2022/05/03 09:04:25;;;;;;;;;32.25;30.00;;;;;15.64;45.20;101181.72;5030727;28;45502;-49
2022/05/03 09:06:50;;;;;;;;;30.00;26.50;;;;;15.53;44.46;101164.84;5030549;28;45386;-55
2022/05/03 09:09:20;;;;;;;;;35.00;30.75;;;;;15.69;43.82;101187.41;5050741;28;45441;-52
2022/05/03 09:11:47;;;;;;;;;29.40;27.80;;;;;15.51;43.76;101161.47;5035365;28;46089;-54
2022/05/03 09:14:14;;;;;;;;;29.20;27.20;;;;;15.77;44.34;101194.50;5030613;28;45484;-54
2022/05/03 09:16:49;;;;;;;;;39.20;32.40;;;;;15.88;44.16;101193.72;5029437;28;45399;-56
2022/05/03 09:19:27;;;;;;;;;30.20;27.00;;;;;15.97;44.28;101191.47;5030927;28;45855;-55
2022/05/03 09:25:04;;;;;;;;;32.20;24.00;;;;;16.09;43.61;101191.50;5058424;28;45723;-54
2022/05/03 09:27:31;;;;;;;;;30.00;28.60;;;;;16.18;43.59;101195.63;5016654;27;45530;-56
2022/05/03 09:30:07;;;;;;;;;34.00;26.80;;;;;16.11;43.58;101189.31;5030518;28;45820;-56
2022/05/03 09:32:42;;;;;;;;;38.20;33.00;;;;;16.11;43.48;101170.78;5050489;28;45442;-60
2022/05/03 09:35:30;;;;;;;;;31.00;28.00;;;;;16.40;43.57;101193.09;5031659;27;45761;-57
2022/05/03 09:37:56;;;;;;;;;36.20;31.80;;;;;16.49;43.29;101181.66;5031031;28;45448;-58
2022/05/03 09:40:22;;;;;;;;;35.75;30.00;;;;;16.58;43.22;101179.34;5027947;28;45487;-59
2022/05/03 09:42:54;;;;;;;;;33.80;30.40;;;;;16.58;42.97;101180.19;5027868;28;46635;-56
2022/05/03 09:45:24;;;;;;;;;32.40;29.60;;;;;16.63;43.01;101173.94;5030109;28;45441;-54
2022/05/03 09:47:52;;;;;;;;;30.60;27.20;;;;;16.67;43.23;101167.66;5029095;28;45398;-52
2022/05/03 09:50:26;;;;;;;;;31.80;29.20;;;;;16.86;42.94;101175.81;5029694;28;45643;-57
2022/05/03 09:52:52;;;;;;;;;35.60;30.60;;;;;16.93;42.80;101157.13;5032396;28;45854;-55
2022/05/03 09:55:26;;;;;;;;;33.40;30.80;;;;;17.10;42.66;101170.28;5031163;28;46022;-57
2022/05/03 09:57:52;;;;;;;;;29.20;25.60;;;;;16.93;42.20;101143.25;5034029;28;45390;-56
2022/05/03 10:00:18;;;;;;;;;26.50;26.00;;;;;17.21;40.89;101174.09;5032421;28;45578;-58
2022/05/03 10:02:43;;;;;;;;;33.00;28.50;;;;;17.22;40.84;101158.31;5032266;28;46436;-55
2022/05/03 10:05:10;;;;;;;;;26.25;22.75;;;;;17.29;40.84;101165.38;5066276;28;45493;-53
2022/05/03 10:07:35;;;;;;;;;30.20;26.40;;;;;17.40;40.49;101168.38;5031411;28;45678;-50
2022/05/03 10:10:03;;;;;;;;;27.50;24.00;;;;;17.38;39.89;101162.19;5000128;28;46287;-62
2022/05/03 10:12:28;;;;;;;;;26.40;22.80;;;;;17.42;40.34;101153.16;5056552;28;46217;-61
2022/05/03 10:14:54;;;;;;;;;27.00;24.75;;;;;17.58;40.70;101167.31;5048498;28;45252;-58
2022/05/03 10:20:42;;;;;;;;;32.00;29.40;;;;;17.69;40.02;101143.34;5037581;28;45343;-56
2022/05/03 10:23:24;;;;;;;;;21.80;21.80;;;;;17.66;40.47;101114.16;5036691;28;45797;-50
2022/05/03 10:25:53;;;;;;;;;30.40;28.00;;;;;17.93;40.20;101151.56;5031870;28;45547;-53
2022/05/03 10:28:19;;;;;;;;;26.60;25.40;;;;;17.93;39.96;101140.44;5030657;27;45390;-52
2022/05/03 10:31:06;;;;;;;;;17.50;16.00;;;;;18.09;39.83;101153.50;5034243;28;45363;-54
2022/05/03 10:33:31;;;;;;;;;22.80;21.20;;;;;18.15;39.16;101154.44;5036811;28;46102;-50
2022/05/03 10:35:58;;;;;;;;;31.00;27.50;;;;;18.19;38.36;101152.81;5036719;28;45369;-56
2022/05/03 10:38:43;;;;;;;;;25.40;22.60;;;;;17.89;37.71;101092.91;5036659;28;45848;-59
2022/05/03 10:41:09;;;;;;;;;22.40;21.40;;;;;17.69;38.25;101049.84;5035800;28;45480;-50
2022/05/03 10:43:34;;;;;;;;;18.25;18.25;;;;;18.39;37.25;101157.03;5036760;28;46709;-52
2022/05/03 10:46:19;;;;;;;;;26.50;22.75;;;;;18.44;37.66;101148.75;5037586;28;45792;-53
2022/05/03 10:48:44;;;;;;;;;22.20;21.20;;;;;18.52;38.25;101131.66;5037542;28;45759;-54
2022/05/03 10:51:11;;;;;;;;;26.25;21.75;;;;;18.65;37.75;101141.56;5051970;28;45543;-49
2022/05/03 10:53:38;;;;;;;;;23.60;23.60;;;;;18.73;37.42;101140.25;5036981;28;45602;-52
2022/05/03 10:56:18;;;;;;;;;23.60;22.40;;;;;18.79;37.40;101132.84;5036183;28;45446;-49
2022/05/03 10:59:07;;;;;;;;;27.80;25.20;;;;;18.72;36.67;101118.31;5037254;28;45608;-52
2022/05/03 11:01:55;;;;;;;;;24.20;21.20;;;;;18.87;37.00;101140.72;5037367;28;45479;-51
2022/05/03 11:04:21;;;;;;;;;24.60;22.00;;;;;18.92;37.22;101129.69;5029752;28;47972;-51
2022/05/03 11:06:49;;;;;;;;;18.40;17.60;;;;;19.10;37.47;101131.31;5069490;28;45237;-51
2022/05/03 11:09:27;;;;;;;;;21.00;20.00;;;;;19.12;37.13;101107.94;5037328;28;45360;-50
2022/05/03 11:11:54;;;;;;;;;24.60;20.60;;;;;19.36;36.49;101142.72;5037440;28;45512;-56
2022/05/03 11:14:20;;;;;;;;;24.40;24.00;;;;;19.39;36.09;101126.59;5038016;27;45472;-53
2022/05/03 11:16:52;;;;;;;;;21.20;19.60;;;;;19.43;36.11;101128.59;5021174;28;45811;-55
2022/05/03 11:19:23;;;;;;;;;23.00;20.60;;;;;19.43;35.70;101125.00;5014511;28;45722;-54
2022/05/03 11:21:49;;;;;;;;;28.60;26.00;;;;;19.39;35.45;101129.38;5030695;28;45517;-55
2022/05/03 11:24:25;;;;;;;;;22.40;20.60;;;;;19.43;36.30;101127.78;5030140;28;48043;-55
2022/05/03 11:26:57;;;;;;;;;23.60;22.20;;;;;19.52;35.66;101119.78;5022510;27;45821;-56
2022/05/03 11:29:32;;;;;;;;;21.40;19.60;;;;;19.41;35.90;101077.94;5111004;27;45563;-53
2022/05/03 11:32:00;;;;;;;;;26.20;22.40;;;;;19.54;35.46;101070.25;5094426;27;45758;-53
2022/05/03 11:34:26;;;;;;;;;23.00;21.80;;;;;19.89;35.54;101114.28;5093288;27;46269;-50
2022/05/03 11:36:52;;;;;;;;;25.50;23.00;;;;;20.03;35.53;101108.28;5093664;27;45813;-57
2022/05/03 11:39:17;;;;;;;;;22.25;20.75;;;;;20.07;35.18;101097.44;5110808;27;45615;-55
2022/05/03 11:41:43;;;;;;;;;25.50;22.75;;;;;20.16;35.11;101093.88;5072530;27;45562;-49
2022/05/03 11:44:09;;;;;;;;;18.00;17.75;;;;;20.27;34.54;101089.22;5075630;27;46598;-47